首页
METAR-TAF:

METAR-TAF

机场 :

梅茨南希洛林, 法国

纬度: 48-59N, 经度: 006-15E, 海拔: 264米

当前天气观测

该预报发布于28分钟前的10:30 UTC
风速10节,风向北转东北,在东转东北之间变化
温度 19°C
湿度 43%
气压 1034 hPa
能见度10公里或以上
1500米以下无云,无积雨云

METAR: LFJL 261030Z AUTO 02010KT 360V060 CAVOK 19/06 Q1034 NOSIG

时间: 12:58 (10:58 UTC)

预报

该预报发布于5小时和58分钟前的05:00 UTC
预报有效从26日的 06点(UTC)到 27日的 06点(UTC)
风速5节,风向北转东北
能见度10公里或以上
1500米以下无云,无积雨云

TAF: LFJL 260500Z 2606/2706 03005KT CAVOK

超过4000个机场的气象观测和天气预报(METAR&TAF报告)。

可查询的气象台以黄色和红色小点在地图上表示。

将鼠标移到小点上方,可查看气象台名称。

然后点击查看天气观测和预报。

如需切换地图:点击带黑十字的绿色按钮放大地图;点击带横线的绿色按钮缩小地图;或者点击绿色箭头查看邻近地区的地图。


METAR-TAF: